createdAt,value
2018-06-02T00:01:20.749Z,95272.94
2018-06-02T00:03:47.154Z,95278.45
2018-06-02T00:06:13.555Z,95285.44
2018-06-02T00:08:39.881Z,95285.73
2018-06-02T00:11:06.222Z,95277.47
2018-06-02T00:13:32.587Z,95280.81
2018-06-02T00:15:58.968Z,95293.19
2018-06-02T00:18:25.337Z,95290.33
2018-06-02T00:20:51.775Z,95286.92
2018-06-02T00:23:18.189Z,95281.42
2018-06-02T00:25:44.532Z,95292.23
2018-06-02T00:28:10.864Z,95292.75
2018-06-02T00:30:37.266Z,95291.31
2018-06-02T00:33:03.604Z,95292.34
2018-06-02T00:35:29.952Z,95295.44
2018-06-02T00:37:56.293Z,95287.00
2018-06-02T00:40:22.686Z,95289.17
2018-06-02T00:42:49.060Z,95294.75
2018-06-02T00:45:15.400Z,95294.55
2018-06-02T00:47:41.729Z,95293.20
2018-06-02T00:50:08.060Z,95279.43
2018-06-02T00:52:34.381Z,95287.82
2018-06-02T00:55:00.715Z,95281.83
2018-06-02T00:57:27.096Z,95292.91
2018-06-02T00:59:53.447Z,95288.39
2018-06-02T01:02:19.776Z,95293.37
2018-06-02T01:04:46.109Z,95283.28
2018-06-02T01:07:12.473Z,95272.98
2018-06-02T01:09:38.839Z,95269.81
2018-06-02T01:12:05.191Z,95278.55
2018-06-02T01:14:31.562Z,95286.83
2018-06-02T01:16:57.891Z,95276.63
2018-06-02T01:19:24.253Z,95283.91
2018-06-02T01:21:50.568Z,95266.95
2018-06-02T01:24:16.932Z,95292.92
2018-06-02T01:26:43.311Z,95297.63
2018-06-02T01:29:09.665Z,95299.52
2018-06-02T01:31:35.985Z,95307.66
2018-06-02T01:34:02.306Z,95306.69
2018-06-02T01:36:28.680Z,95295.47
2018-06-02T01:38:55.017Z,95303.55
2018-06-02T01:41:21.416Z,95299.92
2018-06-02T01:43:47.795Z,95293.35
2018-06-02T01:46:14.163Z,95294.95
2018-06-02T01:48:40.636Z,95303.80
2018-06-02T01:51:06.986Z,95306.02
2018-06-02T01:53:33.326Z,95300.86
2018-06-02T01:55:59.711Z,95311.13
2018-06-02T01:58:26.130Z,95306.11
2018-06-02T02:00:52.537Z,95298.34
2018-06-02T02:03:18.936Z,95279.08
2018-06-02T02:05:45.261Z,95301.23
2018-06-02T02:08:11.600Z,95294.03
2018-06-02T02:10:37.922Z,95296.37
2018-06-02T02:13:04.288Z,95306.41
2018-06-02T02:15:30.632Z,95299.14
2018-06-02T02:17:57.000Z,95292.03
2018-06-02T02:20:23.344Z,95295.66
2018-06-02T02:22:49.669Z,95299.77
2018-06-02T02:25:15.986Z,95299.77
2018-06-02T02:27:42.351Z,95305.13
2018-06-02T02:30:08.715Z,95301.72
2018-06-02T02:32:35.036Z,95301.13
2018-06-02T02:35:01.412Z,95304.00
2018-06-02T02:37:27.746Z,95308.28
2018-06-02T02:39:54.104Z,95306.25
2018-06-02T02:42:20.433Z,95294.98
2018-06-02T02:44:46.761Z,95303.53
2018-06-02T02:47:13.092Z,95302.48
2018-06-02T02:49:39.537Z,95295.63
2018-06-02T02:52:05.853Z,95304.06
2018-06-02T02:54:32.169Z,95301.21
2018-06-02T02:56:58.495Z,95306.13
2018-06-02T02:59:24.882Z,95307.64
2018-06-02T03:01:51.254Z,95297.34
2018-06-02T03:04:17.570Z,95305.91
2018-06-02T03:06:43.964Z,95306.61
2018-06-02T03:09:10.284Z,95313.76
2018-06-02T03:11:36.684Z,95326.65
2018-06-02T03:14:03.017Z,95321.02
2018-06-02T03:16:29.367Z,95311.30
2018-06-02T03:18:55.714Z,95305.20
2018-06-02T03:21:22.060Z,95307.28
2018-06-02T03:23:48.418Z,95299.31
2018-06-02T03:26:14.740Z,95312.87
2018-06-02T03:28:41.125Z,95302.30
2018-06-02T03:31:07.478Z,95299.09
2018-06-02T03:33:33.847Z,95303.41
2018-06-02T03:36:00.187Z,95307.81
2018-06-02T03:38:26.518Z,95310.39
2018-06-02T03:40:52.851Z,95310.62
2018-06-02T03:43:19.183Z,95308.45
2018-06-02T03:45:45.553Z,95318.98
2018-06-02T03:48:11.904Z,95315.16
2018-06-02T03:50:38.241Z,95317.34
2018-06-02T03:53:04.605Z,95310.47
2018-06-02T03:55:30.976Z,95305.25
2018-06-02T03:57:57.329Z,95306.02
2018-06-02T04:00:23.707Z,95309.02
2018-06-02T04:02:50.075Z,95300.33
2018-06-02T04:05:16.469Z,95310.34
2018-06-02T04:07:42.820Z,95299.26
2018-06-02T04:10:09.156Z,95307.06
2018-06-02T04:12:35.602Z,95301.79
2018-06-02T04:15:01.962Z,95309.00
2018-06-02T04:17:28.308Z,95305.75
2018-06-02T04:19:54.652Z,95313.45
2018-06-02T04:22:20.992Z,95320.70
2018-06-02T04:24:47.354Z,95309.21
2018-06-02T04:27:13.697Z,95319.17
2018-06-02T04:29:40.017Z,95315.73
2018-06-02T04:32:06.354Z,95303.69
2018-06-02T04:34:32.720Z,95312.52
2018-06-02T04:36:59.088Z,95309.92
2018-06-02T04:39:25.418Z,95312.38
2018-06-02T04:41:51.755Z,95318.23
2018-06-02T04:44:18.074Z,95319.41
2018-06-02T04:46:44.429Z,95307.20
2018-06-02T04:49:10.775Z,95318.70
2018-06-02T04:51:37.127Z,95304.73
2018-06-02T04:54:03.467Z,95303.77
2018-06-02T04:56:29.862Z,95314.12
2018-06-02T04:58:56.188Z,95321.73
2018-06-02T05:01:22.519Z,95316.20
2018-06-02T05:03:48.888Z,95317.99
2018-06-02T05:06:15.208Z,95314.14
2018-06-02T05:08:41.580Z,95325.27
2018-06-02T05:11:07.920Z,95320.51
2018-06-02T05:13:34.321Z,95324.69
2018-06-02T05:16:00.642Z,95316.21
2018-06-02T05:18:26.997Z,95325.25
2018-06-02T05:20:53.340Z,95323.81
2018-06-02T05:23:19.732Z,95321.80
2018-06-02T05:25:46.080Z,95321.08
2018-06-02T05:28:12.436Z,95326.36
2018-06-02T05:30:38.828Z,95317.55
2018-06-02T05:33:05.210Z,95314.71
2018-06-02T05:35:31.678Z,95322.90
2018-06-02T05:37:58.008Z,95319.32
2018-06-02T05:40:24.494Z,95316.73
2018-06-02T05:42:50.860Z,95326.94
2018-06-02T05:45:17.232Z,95332.67
2018-06-02T05:47:43.559Z,95327.77
2018-06-02T05:50:09.974Z,95326.48
2018-06-02T05:52:36.313Z,95322.75
2018-06-02T05:55:02.651Z,95322.11
2018-06-02T05:57:28.985Z,95321.80
2018-06-02T05:59:55.418Z,95329.16
2018-06-02T06:02:21.769Z,95330.31
2018-06-02T06:04:48.123Z,95323.28
2018-06-02T06:07:14.457Z,95334.08
2018-06-02T06:09:40.801Z,95327.55
2018-06-02T06:12:07.160Z,95329.53
2018-06-02T06:14:33.490Z,95306.34
2018-06-02T06:16:59.855Z,95325.64
2018-06-02T06:19:26.243Z,95323.06
2018-06-02T06:21:52.612Z,95322.06
2018-06-02T06:24:18.940Z,95328.16
2018-06-02T06:26:45.253Z,95333.02
2018-06-02T06:29:11.563Z,95326.53
2018-06-02T06:31:37.899Z,95320.38
2018-06-02T06:34:04.221Z,95323.48
2018-06-02T06:36:30.564Z,95307.23
2018-06-02T06:38:56.899Z,95319.47
2018-06-02T06:41:23.280Z,95321.33
2018-06-02T06:43:49.611Z,95322.91
2018-06-02T06:46:15.952Z,95320.23
2018-06-02T06:48:42.293Z,95321.77
2018-06-02T06:51:08.664Z,95318.77
2018-06-02T06:53:35.034Z,95315.02
2018-06-02T06:56:01.427Z,95307.11
2018-06-02T06:58:27.793Z,95313.45
2018-06-02T07:00:54.142Z,95305.00
2018-06-02T07:03:20.459Z,95309.16
2018-06-02T07:05:46.776Z,95294.08
2018-06-02T07:08:13.147Z,95311.12
2018-06-02T07:10:39.490Z,95296.28
2018-06-02T07:13:05.863Z,95297.10
2018-06-02T07:15:32.199Z,95297.08
2018-06-02T07:17:58.531Z,95291.01
2018-06-02T07:20:24.869Z,95297.62
2018-06-02T07:22:51.198Z,95298.58
2018-06-02T07:25:17.545Z,95292.23
2018-06-02T07:27:43.867Z,95299.52
2018-06-02T07:30:10.233Z,95299.73
2018-06-02T07:32:36.551Z,95303.49
2018-06-02T07:35:02.895Z,95294.01
2018-06-02T07:37:29.215Z,95294.36
2018-06-02T07:39:55.533Z,95292.50
2018-06-02T07:42:21.907Z,95290.87
2018-06-02T07:44:48.244Z,95290.61
2018-06-02T07:47:14.615Z,95290.32
2018-06-02T07:49:40.947Z,95286.44
2018-06-02T07:52:07.324Z,95288.48
2018-06-02T07:54:33.697Z,95292.09
2018-06-02T07:57:00.044Z,95275.45
2018-06-02T07:59:26.372Z,95284.00
2018-06-02T08:01:52.720Z,95281.27
2018-06-02T08:04:19.109Z,95273.06
2018-06-02T08:06:45.421Z,95278.46
2018-06-02T08:09:11.754Z,95279.89
2018-06-02T08:11:38.104Z,95281.80
2018-06-02T08:14:04.468Z,95277.77
2018-06-02T08:16:30.825Z,95280.09
2018-06-02T08:18:57.155Z,95274.65
2018-06-02T08:21:23.544Z,95273.95
2018-06-02T08:23:49.874Z,95260.33
2018-06-02T08:26:16.196Z,95269.31
2018-06-02T08:28:42.536Z,95266.58
2018-06-02T08:31:08.886Z,95261.81
2018-06-02T08:33:35.317Z,95260.09
2018-06-02T08:36:01.620Z,95267.36
2018-06-02T08:38:27.952Z,95266.24
2018-06-02T08:40:54.324Z,95260.59
2018-06-02T08:43:20.665Z,95256.64
2018-06-02T08:45:47.047Z,95257.94
2018-06-02T08:48:13.392Z,95253.57
2018-06-02T08:50:39.760Z,95253.22
2018-06-02T08:53:06.154Z,95250.70
2018-06-02T08:55:32.515Z,95241.55
2018-06-02T08:57:58.895Z,95245.50
2018-06-02T09:00:25.309Z,95247.76
2018-06-02T09:02:51.601Z,95246.73
2018-06-02T09:05:18.006Z,95243.27
2018-06-02T09:07:44.312Z,95244.41
2018-06-02T09:10:10.638Z,95239.92
2018-06-02T09:12:36.953Z,95239.03
2018-06-02T09:15:03.317Z,95233.56
2018-06-02T09:17:29.659Z,95233.91
2018-06-02T09:19:56.041Z,95225.72
2018-06-02T09:22:22.373Z,95231.31
2018-06-02T09:24:48.692Z,95224.48
2018-06-02T09:27:15.044Z,95205.68
2018-06-02T09:29:41.368Z,95230.30
2018-06-02T09:32:07.735Z,95229.20
2018-06-02T09:34:34.059Z,95227.77
2018-06-02T09:37:00.428Z,95226.06
2018-06-02T09:39:26.764Z,95219.23
2018-06-02T09:41:53.204Z,95212.02
2018-06-02T09:44:19.530Z,95209.27
2018-06-02T09:46:45.855Z,95216.05
2018-06-02T09:49:12.194Z,95218.96
2018-06-02T09:51:38.521Z,95210.71
2018-06-02T09:54:04.839Z,95208.88
2018-06-02T09:56:31.193Z,95205.88
2018-06-02T09:58:57.558Z,95195.69
2018-06-02T10:01:23.888Z,95192.06
2018-06-02T10:03:50.209Z,95196.69
2018-06-02T10:06:16.541Z,95193.77
2018-06-02T10:08:42.858Z,95200.52
2018-06-02T10:11:09.200Z,95196.91
2018-06-02T10:13:35.536Z,95201.53
2018-06-02T10:16:01.858Z,95191.56
2018-06-02T10:18:28.172Z,95189.26
2018-06-02T10:20:54.501Z,95193.69
2018-06-02T10:23:20.835Z,95184.20
2018-06-02T10:25:47.195Z,95180.28
2018-06-02T10:28:13.537Z,95160.92
2018-06-02T10:30:39.892Z,95176.83
2018-06-02T10:33:06.216Z,95177.78
2018-06-02T10:35:32.545Z,95167.69
2018-06-02T10:37:58.884Z,95170.00
2018-06-02T10:40:25.210Z,95163.05
2018-06-02T10:42:51.577Z,95165.67
2018-06-02T10:45:17.908Z,95163.64
2018-06-02T10:47:44.263Z,95158.93
2018-06-02T10:50:10.592Z,95149.38
2018-06-02T10:52:36.974Z,95147.38
2018-06-02T10:55:03.323Z,95152.22
2018-06-02T10:57:29.652Z,95147.31
2018-06-02T10:59:56.061Z,95145.80
2018-06-02T11:02:22.389Z,95151.87
2018-06-02T11:04:48.714Z,95147.85
2018-06-02T11:07:15.047Z,95138.36
2018-06-02T11:09:41.381Z,95142.91
2018-06-02T11:12:07.752Z,95139.91
2018-06-02T11:14:34.077Z,95126.21
2018-06-02T11:17:00.492Z,95123.45
2018-06-02T11:19:26.906Z,95114.25
2018-06-02T11:21:53.231Z,95123.86
2018-06-02T11:24:19.555Z,95107.23
2018-06-02T11:26:45.890Z,95121.86
2018-06-02T11:29:12.218Z,95117.56
2018-06-02T11:31:38.553Z,95110.59
2018-06-02T11:34:04.899Z,95112.33
2018-06-02T11:36:31.240Z,95115.34
2018-06-02T11:38:57.602Z,95095.81
2018-06-02T11:41:23.961Z,95105.96
2018-06-02T11:43:50.341Z,95086.27
2018-06-02T11:46:16.681Z,95080.88
2018-06-02T11:48:43.061Z,95070.63
2018-06-02T11:51:09.428Z,95061.37
2018-06-02T11:53:35.750Z,95081.18
2018-06-02T11:56:02.074Z,95072.68
2018-06-02T11:58:28.396Z,95073.74
2018-06-02T12:00:54.750Z,95058.20
2018-06-02T12:03:21.083Z,95063.97
2018-06-02T12:05:47.416Z,95048.74
2018-06-02T12:08:13.770Z,95056.07
2018-06-02T12:10:40.195Z,95043.66
2018-06-02T12:13:06.572Z,95040.73
2018-06-02T12:15:32.900Z,95051.86
2018-06-02T12:17:59.232Z,95053.28
2018-06-02T12:20:25.615Z,95055.64
2018-06-02T12:22:51.959Z,95052.34
2018-06-02T12:25:18.298Z,95052.80
2018-06-02T12:27:44.661Z,95056.59
2018-06-02T12:30:11.056Z,95054.64
2018-06-02T12:32:37.409Z,95038.25
2018-06-02T12:35:03.788Z,95041.89
2018-06-02T12:37:30.150Z,95054.11
2018-06-02T12:39:56.487Z,95047.22
2018-06-02T12:42:22.852Z,95033.06
2018-06-02T12:44:49.216Z,95025.45
2018-06-02T12:47:15.608Z,95049.27
2018-06-02T12:49:41.928Z,95025.09
2018-06-02T12:52:08.312Z,95040.37
2018-06-02T12:54:34.688Z,95037.45
2018-06-02T12:57:01.100Z,95029.55
2018-06-02T12:59:27.512Z,95035.93
2018-06-02T13:01:53.940Z,95039.48
2018-06-02T13:04:20.328Z,95028.27
2018-06-02T13:06:46.709Z,95036.36
2018-06-02T13:09:13.082Z,95029.05
2018-06-02T13:11:39.452Z,95031.58
2018-06-02T13:14:05.824Z,95029.69
2018-06-02T13:16:32.239Z,95016.73
2018-06-02T13:18:58.603Z,95027.91
2018-06-02T13:21:24.924Z,95038.77
2018-06-02T13:23:51.288Z,95031.46
2018-06-02T13:26:17.635Z,95030.22
2018-06-02T13:28:43.999Z,95044.78
2018-06-02T13:31:10.387Z,95035.17
2018-06-02T13:33:36.720Z,95042.72
2018-06-02T13:36:03.090Z,95048.92
2018-06-02T13:38:29.447Z,95047.33
2018-06-02T13:40:55.814Z,95047.98
2018-06-02T13:43:22.193Z,95040.59
2018-06-02T13:45:48.531Z,95043.32
2018-06-02T13:48:14.860Z,95035.22
2018-06-02T13:50:41.255Z,95033.95
2018-06-02T13:53:07.574Z,95037.52
2018-06-02T13:55:33.906Z,95037.25
2018-06-02T13:58:00.240Z,95040.32
2018-06-02T14:00:26.606Z,95028.69
2018-06-02T14:02:52.967Z,95035.81
2018-06-02T14:05:19.288Z,95030.15
2018-06-02T14:07:45.650Z,95034.77
2018-06-02T14:10:11.984Z,95013.66
2018-06-02T14:12:38.398Z,95031.40
2018-06-02T14:15:04.748Z,95033.56
2018-06-02T14:17:31.110Z,95023.27
2018-06-02T14:19:57.532Z,95025.84
2018-06-02T14:22:23.878Z,95027.80
2018-06-02T14:24:50.240Z,95020.31
2018-06-02T14:27:16.618Z,95022.56
2018-06-02T14:29:42.944Z,95023.18
2018-06-02T14:32:09.303Z,95013.36
2018-06-02T14:34:35.653Z,95024.02
2018-06-02T14:37:02.033Z,95032.63
2018-06-02T14:39:28.373Z,95029.27
2018-06-02T14:41:54.763Z,95031.10
2018-06-02T14:44:21.085Z,95037.94
2018-06-02T14:46:47.442Z,95031.98
2018-06-02T14:49:13.781Z,95021.03
2018-06-02T14:51:40.188Z,95029.67
2018-06-02T14:54:06.578Z,95007.76
2018-06-02T14:56:32.940Z,95001.73
2018-06-02T14:58:59.306Z,94991.76
2018-06-02T15:01:25.673Z,94989.28
2018-06-02T15:03:52.067Z,94996.48
2018-06-02T15:06:18.410Z,95013.82
2018-06-02T15:08:44.806Z,95014.70
2018-06-02T15:11:11.132Z,95018.08
2018-06-02T15:13:37.520Z,95024.09
2018-06-02T15:16:03.848Z,95026.75
2018-06-02T15:18:30.254Z,95012.94
2018-06-02T15:20:56.589Z,95006.10
2018-06-02T15:23:22.936Z,94978.56
2018-06-02T15:25:49.405Z,95008.95
2018-06-02T15:28:15.774Z,95022.43
2018-06-02T15:30:42.108Z,95025.75
2018-06-02T15:33:09.033Z,95046.69
2018-06-02T15:35:35.477Z,95054.89
2018-06-02T15:38:01.969Z,95067.80
2018-06-02T15:40:28.396Z,95069.87
2018-06-02T15:42:54.738Z,95070.80
2018-06-02T15:45:21.119Z,95082.64
2018-06-02T15:47:47.456Z,95062.48
2018-06-02T15:50:15.495Z,95074.86
2018-06-02T15:52:41.905Z,95067.50
2018-06-02T15:55:08.304Z,95059.58
2018-06-02T15:57:35.885Z,95072.44
2018-06-02T16:00:02.454Z,95085.13
2018-06-02T16:02:28.864Z,95108.00
2018-06-02T16:04:55.209Z,95128.38
2018-06-02T16:07:21.540Z,95134.42
2018-06-02T16:09:47.880Z,95150.67
2018-06-02T16:12:16.254Z,95147.13
2018-06-02T16:14:42.596Z,95168.29
2018-06-02T16:17:08.919Z,95173.03
2018-06-02T16:19:35.283Z,95176.23
2018-06-02T16:22:01.658Z,95144.88
2018-06-02T16:24:29.517Z,95186.00
2018-06-02T16:26:55.885Z,95198.55
2018-06-02T16:29:22.300Z,95203.12
2018-06-02T16:31:48.785Z,95200.33
2018-06-02T16:34:15.152Z,95212.48
2018-06-02T16:36:41.510Z,95221.08
2018-06-02T16:39:07.988Z,95222.44
2018-06-02T16:41:34.465Z,95193.13
2018-06-02T16:44:00.800Z,95203.91
2018-06-02T16:46:27.210Z,95221.64
2018-06-02T16:48:53.559Z,95215.44
2018-06-02T16:51:19.993Z,95222.94
2018-06-02T16:53:46.324Z,95212.14
2018-06-02T16:56:14.166Z,95202.39
2018-06-02T16:58:40.525Z,95201.44
2018-06-02T17:01:06.873Z,95197.30
2018-06-02T17:03:33.232Z,95194.38
2018-06-02T17:06:00.962Z,95203.84
2018-06-02T17:08:27.305Z,95195.81
2018-06-02T17:10:53.666Z,95177.92
2018-06-02T17:13:20.082Z,95181.76
2018-06-02T17:15:47.402Z,95173.91
2018-06-02T17:18:13.918Z,95183.94
2018-06-02T17:20:40.312Z,95180.92
2018-06-02T17:23:06.651Z,95177.13
2018-06-02T17:25:33.017Z,95178.48
2018-06-02T17:27:59.336Z,95183.92
2018-06-02T17:30:25.718Z,95168.91
2018-06-02T17:32:52.085Z,95170.53
2018-06-02T17:35:18.411Z,95175.84
2018-06-02T17:37:44.743Z,95146.83
2018-06-02T17:40:11.153Z,95169.23
2018-06-02T17:42:37.496Z,95168.91
2018-06-02T17:45:05.388Z,95174.69
2018-06-02T17:47:31.799Z,95167.33
2018-06-02T17:49:58.216Z,95168.27
2018-06-02T17:52:24.560Z,95166.78
2018-06-02T17:54:50.918Z,95169.86
2018-06-02T17:57:17.291Z,95174.71
2018-06-02T17:59:43.731Z,95166.51
2018-06-02T18:02:10.104Z,95159.63
2018-06-02T18:04:36.585Z,95169.86
2018-06-02T18:07:02.981Z,95166.86
2018-06-02T18:09:29.341Z,95156.16
2018-06-02T18:11:55.764Z,95154.99
2018-06-02T18:14:22.221Z,95155.05
2018-06-02T18:16:48.624Z,95142.12
2018-06-02T18:19:15.658Z,95144.38
2018-06-02T18:21:42.137Z,95145.53
2018-06-02T18:24:08.497Z,95147.23
2018-06-02T18:26:34.919Z,95135.70
2018-06-02T18:29:01.268Z,95130.39
2018-06-02T18:31:27.672Z,95136.78
2018-06-02T18:33:54.143Z,95113.30
2018-06-02T18:36:20.526Z,95132.09
2018-06-02T18:38:46.915Z,95121.75
2018-06-02T18:41:13.285Z,95116.22
2018-06-02T18:43:39.703Z,95125.95
2018-06-02T18:46:06.197Z,95121.20
2018-06-02T18:48:32.619Z,95131.22
2018-06-02T18:50:59.075Z,95124.11
2018-06-02T18:53:25.407Z,95124.18
2018-06-02T18:55:51.784Z,95128.08
2018-06-02T18:58:20.056Z,95123.37
2018-06-02T19:00:46.428Z,95145.03
2018-06-02T19:03:12.865Z,95148.11
2018-06-02T19:05:39.229Z,95157.02
2018-06-02T19:08:05.556Z,95144.62
2018-06-02T19:10:32.088Z,95155.38
2018-06-02T19:12:58.476Z,95150.66
2018-06-02T19:15:24.872Z,95156.80
2018-06-02T19:17:51.219Z,95167.98
2018-06-02T19:20:17.580Z,95162.39
2018-06-02T19:22:45.240Z,95156.59
2018-06-02T19:25:11.557Z,95167.72
2018-06-02T19:27:37.918Z,95162.34
2018-06-02T19:30:04.296Z,95160.61
2018-06-02T19:32:30.687Z,95160.70
2018-06-02T19:34:57.089Z,95171.25
2018-06-02T19:37:23.486Z,95173.69
2018-06-02T19:39:49.808Z,95174.11
2018-06-02T19:42:16.163Z,95172.61
2018-06-02T19:44:42.495Z,95163.91
2018-06-02T19:47:08.880Z,95154.01
2018-06-02T19:49:35.204Z,95168.94
2018-06-02T19:52:01.628Z,95171.88
2018-06-02T19:54:28.035Z,95166.47
2018-06-02T19:56:54.383Z,95149.45
2018-06-02T19:59:20.763Z,95175.91
2018-06-02T20:01:47.088Z,95164.03
2018-06-02T20:04:13.607Z,95169.09
2018-06-02T20:06:39.983Z,95163.77
2018-06-02T20:09:06.373Z,95141.05
2018-06-02T20:11:32.749Z,95153.92
2018-06-02T20:13:59.246Z,95170.36
2018-06-02T20:16:25.710Z,95170.15
2018-06-02T20:18:52.166Z,95165.80
2018-06-02T20:21:18.483Z,95169.06
2018-06-02T20:23:44.849Z,95147.66
2018-06-02T20:26:11.214Z,95153.92
2018-06-02T20:28:37.589Z,95161.71
2018-06-02T20:31:05.104Z,95162.04
2018-06-02T20:33:31.568Z,95159.09
2018-06-02T20:35:57.927Z,95144.58
2018-06-02T20:38:24.359Z,95153.31
2018-06-02T20:40:50.699Z,95173.06
2018-06-02T20:43:17.164Z,95165.33
2018-06-02T20:45:43.615Z,95173.74
2018-06-02T20:48:09.992Z,95172.56
2018-06-02T20:50:36.401Z,95162.89
2018-06-02T20:53:02.724Z,95168.42
2018-06-02T20:55:29.110Z,95167.30
2018-06-02T20:57:55.437Z,95168.33
2018-06-02T21:00:21.796Z,95162.33
2018-06-02T21:02:48.124Z,95156.52
2018-06-02T21:05:14.512Z,95170.30
2018-06-02T21:07:40.886Z,95165.71
2018-06-02T21:10:07.269Z,95162.04
2018-06-02T21:12:33.630Z,95169.59
2018-06-02T21:14:59.987Z,95159.72
2018-06-02T21:17:26.371Z,95167.27
2018-06-02T21:19:52.717Z,95172.45
2018-06-02T21:22:19.227Z,95171.41
2018-06-02T21:24:45.608Z,95178.17
2018-06-02T21:27:11.976Z,95170.80
2018-06-02T21:29:38.408Z,95179.91
2018-06-02T21:32:04.788Z,95183.52
2018-06-02T21:34:31.203Z,95178.61
2018-06-02T21:36:57.670Z,95168.52
2018-06-02T21:41:56.773Z,95182.02
2018-06-02T21:44:23.134Z,95183.72
2018-06-02T21:46:49.560Z,95178.57
2018-06-02T21:49:17.120Z,95189.22
2018-06-02T21:51:43.510Z,95184.57
2018-06-02T21:54:09.947Z,95190.51
2018-06-02T21:56:36.327Z,95179.16
2018-06-02T21:59:02.690Z,95177.35
2018-06-02T22:01:29.118Z,95189.95
2018-06-02T22:03:55.575Z,95186.33
2018-06-02T22:06:21.959Z,95187.56
2018-06-02T22:08:48.338Z,95178.49
2018-06-02T22:11:14.746Z,95180.65
2018-06-02T22:13:41.107Z,95184.83
2018-06-02T22:16:07.513Z,95185.88
2018-06-02T22:18:33.894Z,95183.31
2018-06-02T22:21:00.298Z,95195.86
2018-06-02T22:23:26.684Z,95190.28
2018-06-02T22:25:53.881Z,95191.53
2018-06-02T22:28:20.269Z,95195.77
2018-06-02T22:30:46.732Z,95185.63
2018-06-02T22:33:13.242Z,95183.16
2018-06-02T22:35:39.708Z,95173.12
2018-06-02T22:38:06.127Z,95178.71
2018-06-02T22:40:32.626Z,95176.18
2018-06-02T22:42:59.036Z,95182.47
2018-06-02T22:45:25.496Z,95172.98
2018-06-02T22:47:53.517Z,95182.64
2018-06-02T22:50:19.911Z,95176.44
2018-06-02T22:52:46.534Z,95173.17
2018-06-02T22:55:12.943Z,95156.73
2018-06-02T22:57:39.303Z,95179.58
2018-06-02T23:00:05.735Z,95181.19
2018-06-02T23:02:32.239Z,95183.45
2018-06-02T23:04:58.601Z,95178.86
2018-06-02T23:07:26.918Z,95179.22
2018-06-02T23:09:53.284Z,95175.51
2018-06-02T23:12:20.748Z,95180.27
2018-06-02T23:14:47.191Z,95180.41
2018-06-02T23:17:13.555Z,95182.84
2018-06-02T23:19:39.917Z,95176.73
2018-06-02T23:22:06.315Z,95177.20
2018-06-02T23:24:32.848Z,95174.41
2018-06-02T23:26:59.270Z,95181.08
2018-06-02T23:29:25.659Z,95174.26
2018-06-02T23:31:52.228Z,95173.17
2018-06-02T23:34:18.648Z,95173.34
2018-06-02T23:36:45.398Z,95166.61
2018-06-02T23:39:11.900Z,95168.37
2018-06-02T23:41:38.328Z,95167.69
2018-06-02T23:44:04.749Z,95167.08
2018-06-02T23:46:31.301Z,95160.87
2018-06-02T23:48:57.863Z,95152.44
2018-06-02T23:51:24.233Z,95157.66
2018-06-02T23:53:50.595Z,95159.95
2018-06-02T23:56:16.970Z,95153.27
2018-06-02T23:58:43.374Z,95157.36
